createdAt,value
2023-02-19T00:01:47.585Z,3.00
2023-02-19T00:04:22.024Z,3.00
2023-02-19T00:06:49.987Z,3.00
2023-02-19T00:09:20.533Z,5.00
2023-02-19T00:11:48.584Z,6.00
2023-02-19T00:14:18.866Z,7.00
2023-02-19T00:16:46.998Z,6.00
2023-02-19T00:19:18.114Z,6.00
2023-02-19T00:21:45.894Z,6.00
2023-02-19T00:24:14.415Z,4.50
2023-02-19T00:26:44.479Z,4.00
2023-02-19T00:29:30.008Z,5.00
2023-02-19T00:31:57.508Z,6.00
2023-02-19T00:34:25.350Z,6.00
2023-02-19T00:36:52.994Z,6.00
2023-02-19T00:39:21.540Z,6.25
2023-02-19T00:41:48.941Z,6.50
2023-02-19T00:44:17.990Z,3.50
2023-02-19T00:46:47.558Z,8.00
2023-02-19T00:49:21.107Z,3.25
2023-02-19T00:51:51.707Z,5.00
2023-02-19T00:54:22.564Z,7.00
2023-02-19T00:56:51.265Z,3.75
2023-02-19T00:59:18.764Z,6.00
2023-02-19T01:01:46.182Z,6.75
2023-02-19T01:04:14.063Z,6.00
2023-02-19T01:06:41.926Z,6.75
2023-02-19T01:09:09.546Z,7.75
2023-02-19T01:11:37.532Z,7.00
2023-02-19T01:14:05.623Z,6.50
2023-02-19T01:16:33.158Z,6.25
2023-02-19T01:19:00.990Z,4.50
2023-02-19T01:21:30.110Z,6.00
2023-02-19T01:23:58.584Z,6.75
2023-02-19T01:26:29.460Z,7.25
2023-02-19T01:28:57.475Z,4.00
2023-02-19T01:31:25.888Z,5.00
2023-02-19T01:33:56.351Z,8.25
2023-02-19T01:36:24.329Z,4.50
2023-02-19T01:38:51.726Z,8.00
2023-02-19T01:41:24.790Z,10.00
2023-02-19T01:43:58.310Z,8.50
2023-02-19T01:46:46.440Z,7.75
2023-02-19T01:49:20.977Z,8.00
2023-02-19T01:51:59.330Z,3.75
2023-02-19T01:54:31.631Z,3.00
2023-02-19T01:57:03.384Z,7.25
2023-02-19T01:59:33.332Z,7.50
2023-02-19T02:02:01.024Z,8.00
2023-02-19T02:04:31.151Z,10.50
2023-02-19T02:07:01.352Z,8.00
2023-02-19T02:09:49.668Z,5.50
2023-02-19T02:12:17.674Z,6.00
2023-02-19T02:14:48.363Z,3.00
2023-02-19T02:17:26.031Z,3.25
2023-02-19T02:20:22.606Z,5.00
2023-02-19T02:23:09.066Z,5.50
2023-02-19T02:25:58.695Z,4.25
2023-02-19T02:28:57.431Z,3.00
2023-02-19T02:31:36.133Z,7.25
2023-02-19T02:34:27.426Z,3.00
2023-02-19T02:36:57.451Z,9.00
2023-02-19T02:39:28.377Z,7.75
2023-02-19T02:42:18.546Z,7.75
2023-02-19T02:45:04.814Z,16.25
2023-02-19T02:47:43.387Z,4.00
2023-02-19T02:50:24.332Z,8.00
2023-02-19T02:53:16.972Z,9.00
2023-02-19T02:55:49.248Z,2.00
2023-02-19T02:58:18.143Z,10.25
2023-02-19T03:01:08.013Z,9.00
2023-02-19T03:03:39.683Z,9.75
2023-02-19T03:06:12.325Z,11.75
2023-02-19T03:09:23.445Z,11.00
2023-02-19T03:12:16.787Z,10.50
2023-02-19T03:15:09.644Z,5.75
2023-02-19T03:18:07.651Z,2.00
2023-02-19T03:20:40.387Z,10.50
2023-02-19T03:23:13.018Z,8.75
2023-02-19T03:26:00.454Z,7.25
2023-02-19T03:28:51.027Z,6.00
2023-02-19T03:31:24.170Z,6.00
2023-02-19T03:33:56.174Z,4.25
2023-02-19T03:36:27.546Z,3.00
2023-02-19T03:39:07.298Z,8.00
2023-02-19T03:42:04.265Z,12.25
2023-02-19T03:45:07.902Z,11.50
2023-02-19T03:47:51.097Z,7.50
2023-02-19T03:50:25.709Z,12.00
2023-02-19T03:53:34.439Z,8.00
2023-02-19T03:56:10.722Z,7.00
2023-02-19T03:59:08.670Z,8.25
2023-02-19T04:01:44.836Z,9.50
2023-02-19T04:04:27.531Z,10.25
2023-02-19T04:06:58.954Z,11.00
2023-02-19T04:09:50.921Z,7.75
2023-02-19T04:12:21.621Z,7.25
2023-02-19T04:15:00.836Z,6.00
2023-02-19T04:17:56.623Z,7.00
2023-02-19T04:20:28.319Z,7.50
2023-02-19T04:22:57.197Z,5.00
2023-02-19T04:25:27.315Z,8.00
2023-02-19T04:27:54.864Z,5.50
2023-02-19T04:30:22.665Z,6.00
2023-02-19T04:32:51.092Z,6.00
2023-02-19T04:35:20.185Z,3.25
2023-02-19T04:37:48.235Z,4.00
2023-02-19T04:40:15.763Z,4.00
2023-02-19T04:42:43.321Z,4.00
2023-02-19T04:45:10.827Z,3.75
2023-02-19T04:47:40.135Z,6.50
2023-02-19T04:50:08.165Z,6.00
2023-02-19T04:52:35.780Z,6.75
2023-02-19T04:55:03.476Z,4.00
2023-02-19T04:57:31.127Z,6.00
2023-02-19T04:59:59.160Z,2.25
2023-02-19T05:02:27.443Z,3.50
2023-02-19T05:04:54.823Z,3.75
2023-02-19T05:07:22.271Z,3.00
2023-02-19T05:09:50.290Z,3.50
2023-02-19T05:12:17.763Z,2.00
2023-02-19T05:14:45.291Z,4.00
2023-02-19T05:17:12.791Z,5.50
2023-02-19T05:19:45.964Z,3.25
2023-02-19T05:22:14.271Z,3.00
2023-02-19T05:24:41.594Z,4.00
2023-02-19T05:27:09.254Z,6.75
2023-02-19T05:29:36.646Z,1.75
2023-02-19T05:32:04.367Z,6.50
2023-02-19T05:34:31.859Z,3.00
2023-02-19T05:36:59.351Z,10.25
2023-02-19T05:39:27.201Z,8.75
2023-02-19T05:41:54.636Z,7.25
2023-02-19T05:44:22.066Z,2.75
2023-02-19T05:46:49.425Z,3.50
2023-02-19T05:49:17.447Z,6.00
2023-02-19T05:51:45.948Z,3.75
2023-02-19T05:54:13.384Z,5.50
2023-02-19T05:56:42.882Z,8.00
2023-02-19T05:59:21.793Z,2.00
2023-02-19T06:01:51.992Z,8.00
2023-02-19T06:04:20.523Z,11.25
2023-02-19T06:06:49.208Z,7.25
2023-02-19T06:09:17.147Z,11.50
2023-02-19T06:11:45.014Z,19.00
2023-02-19T06:14:13.998Z,8.50
2023-02-19T06:16:42.255Z,17.25
2023-02-19T06:19:12.310Z,6.75
2023-02-19T06:21:39.717Z,6.75
2023-02-19T06:24:08.984Z,7.00
2023-02-19T06:26:38.386Z,7.25
2023-02-19T06:29:05.811Z,7.25
2023-02-19T06:31:33.706Z,12.25
2023-02-19T06:34:04.710Z,13.50
2023-02-19T06:36:32.090Z,11.00
2023-02-19T06:39:00.516Z,11.25
2023-02-19T06:41:28.252Z,7.00
2023-02-19T06:43:58.106Z,7.75
2023-02-19T06:46:30.170Z,8.00
2023-02-19T06:48:57.843Z,11.25
2023-02-19T06:51:27.259Z,11.00
2023-02-19T06:53:54.853Z,11.50
2023-02-19T06:56:32.006Z,9.25
2023-02-19T06:59:02.692Z,8.75
2023-02-19T07:01:32.187Z,10.25
2023-02-19T07:04:02.978Z,10.75
2023-02-19T07:06:31.350Z,7.00
2023-02-19T07:09:00.463Z,8.00
2023-02-19T07:11:31.197Z,8.50
2023-02-19T07:14:00.268Z,7.50
2023-02-19T07:16:28.137Z,19.75
2023-02-19T07:19:00.238Z,16.75
2023-02-19T07:21:31.560Z,12.25
2023-02-19T07:23:59.118Z,11.50
2023-02-19T07:26:27.834Z,9.50
2023-02-19T07:28:55.239Z,11.75
2023-02-19T07:31:24.798Z,7.75
2023-02-19T07:33:52.726Z,15.50
2023-02-19T07:36:21.820Z,12.75
2023-02-19T07:38:58.871Z,13.00
2023-02-19T07:41:27.263Z,10.25
2023-02-19T07:43:58.516Z,13.50
2023-02-19T07:46:26.306Z,10.00
2023-02-19T07:49:00.299Z,10.00
2023-02-19T07:51:28.007Z,4.00
2023-02-19T07:53:55.427Z,10.50
2023-02-19T07:56:22.895Z,6.00
2023-02-19T07:58:50.840Z,7.50
2023-02-19T08:01:41.188Z,9.00
2023-02-19T08:04:10.821Z,11.50
2023-02-19T08:06:40.354Z,13.00
2023-02-19T08:09:08.159Z,11.50
2023-02-19T08:12:00.963Z,8.50
2023-02-19T08:14:29.675Z,10.75
2023-02-19T08:16:57.365Z,8.00
2023-02-19T08:19:25.775Z,10.75
2023-02-19T08:21:53.746Z,8.50
2023-02-19T08:24:21.305Z,10.00
2023-02-19T08:26:50.111Z,9.75
2023-02-19T08:29:17.886Z,7.00
2023-02-19T08:31:45.609Z,10.50
2023-02-19T08:34:13.440Z,9.00
2023-02-19T08:36:40.771Z,12.25
2023-02-19T08:39:08.316Z,9.00
2023-02-19T08:41:36.240Z,7.00
2023-02-19T08:44:04.119Z,11.75
2023-02-19T08:46:35.917Z,8.00
2023-02-19T08:49:03.983Z,7.75
2023-02-19T08:51:31.619Z,10.25
2023-02-19T08:53:58.990Z,8.50
2023-02-19T08:56:26.384Z,8.25
2023-02-19T08:58:53.864Z,10.25
2023-02-19T09:01:22.152Z,5.00
2023-02-19T09:03:50.065Z,8.50
2023-02-19T09:06:20.167Z,8.50
2023-02-19T09:08:49.175Z,11.00
2023-02-19T09:11:17.158Z,11.50
2023-02-19T09:13:44.765Z,7.75
2023-02-19T09:16:13.478Z,7.75
2023-02-19T09:18:41.095Z,10.75
2023-02-19T09:21:08.707Z,9.00
2023-02-19T09:23:37.471Z,10.00
2023-02-19T09:26:09.404Z,9.25
2023-02-19T09:28:39.775Z,9.75
2023-02-19T09:31:10.138Z,10.00
2023-02-19T09:33:38.230Z,10.00
2023-02-19T09:36:06.044Z,7.75
2023-02-19T09:38:34.169Z,7.75
2023-02-19T09:41:09.200Z,7.75
2023-02-19T09:43:38.038Z,7.00
2023-02-19T09:46:37.067Z,8.25
2023-02-19T09:49:13.546Z,11.00
2023-02-19T09:51:46.364Z,7.75
2023-02-19T09:54:32.094Z,5.50
2023-02-19T09:57:02.804Z,8.75
2023-02-19T09:59:44.280Z,8.25
2023-02-19T10:02:22.265Z,7.25
2023-02-19T10:04:51.424Z,7.25
2023-02-19T10:07:25.782Z,7.75
2023-02-19T10:10:02.820Z,5.00
2023-02-19T10:12:32.305Z,8.25
2023-02-19T10:15:12.397Z,6.50
2023-02-19T10:17:39.964Z,7.00
2023-02-19T10:20:10.500Z,10.00
2023-02-19T10:22:38.561Z,6.25
2023-02-19T10:25:06.852Z,3.50
2023-02-19T10:27:34.689Z,5.00
2023-02-19T10:30:02.604Z,4.25
2023-02-19T10:32:30.319Z,7.75
2023-02-19T10:35:15.772Z,7.75
2023-02-19T10:37:51.701Z,7.00
2023-02-19T10:40:23.057Z,9.00
2023-02-19T10:42:54.814Z,9.75
2023-02-19T10:45:40.788Z,8.00
2023-02-19T10:48:24.887Z,9.50
2023-02-19T10:50:58.200Z,9.75
2023-02-19T10:53:45.507Z,5.00
2023-02-19T10:56:28.913Z,5.00
2023-02-19T10:59:13.804Z,8.00
2023-02-19T11:01:57.762Z,5.00
2023-02-19T11:04:29.234Z,5.00
2023-02-19T11:06:57.845Z,3.00
2023-02-19T11:09:36.088Z,3.00
2023-02-19T11:12:05.815Z,4.67
2023-02-19T11:14:35.029Z,5.67
2023-02-19T11:17:05.691Z,5.00
2023-02-19T11:19:36.899Z,5.00
2023-02-19T11:22:31.698Z,2.67
2023-02-19T11:25:06.895Z,4.00
2023-02-19T11:27:34.735Z,4.50
2023-02-19T11:30:41.526Z,5.50
2023-02-19T11:33:22.368Z,5.00
2023-02-19T11:35:55.561Z,5.00
2023-02-19T11:38:23.735Z,3.00
2023-02-19T11:41:05.344Z,3.00
2023-02-19T11:44:07.322Z,2.00
2023-02-19T11:47:14.226Z,2.50
2023-02-19T11:50:00.486Z,2.75
2023-02-19T11:52:56.572Z,2.75
2023-02-19T11:55:49.999Z,3.25
2023-02-19T11:58:51.628Z,2.25
2023-02-19T12:01:49.321Z,3.50
2023-02-19T12:04:37.915Z,6.75
2023-02-19T12:07:43.008Z,3.50
2023-02-19T12:10:20.270Z,4.25
2023-02-19T12:13:06.049Z,4.75
2023-02-19T12:15:51.369Z,1.50
2023-02-19T12:18:53.564Z,3.75
2023-02-19T12:21:32.797Z,3.00
2023-02-19T12:24:42.635Z,4.00
2023-02-19T12:27:25.963Z,5.00
2023-02-19T12:30:18.710Z,4.00
2023-02-19T12:33:05.536Z,3.00
2023-02-19T12:35:33.643Z,5.00
2023-02-19T12:38:12.201Z,5.00
2023-02-19T12:40:49.410Z,2.00
2023-02-19T12:43:18.829Z,2.50
2023-02-19T12:46:01.742Z,4.25
2023-02-19T12:48:53.508Z,11.75
2023-02-19T12:51:35.526Z,7.50
2023-02-19T12:54:21.296Z,3.50
2023-02-19T12:57:06.382Z,4.00
2023-02-19T12:59:57.526Z,6.00
2023-02-19T13:02:24.876Z,4.00
2023-02-19T13:05:11.134Z,6.00
2023-02-19T13:07:45.692Z,4.25
2023-02-19T13:10:16.594Z,3.00
2023-02-19T13:12:47.009Z,4.50
2023-02-19T13:15:34.940Z,5.75
2023-02-19T13:18:07.810Z,8.00
2023-02-19T13:20:42.602Z,5.00
2023-02-19T13:23:43.876Z,6.00
2023-02-19T13:26:14.661Z,4.75
2023-02-19T13:28:50.976Z,4.00
2023-02-19T13:31:47.162Z,4.25
2023-02-19T13:34:45.647Z,3.75
2023-02-19T13:37:13.210Z,4.25
2023-02-19T13:39:50.050Z,3.75
2023-02-19T13:42:31.183Z,8.00
2023-02-19T13:45:00.223Z,9.75
2023-02-19T13:47:48.454Z,6.50
2023-02-19T13:50:25.392Z,14.75
2023-02-19T13:52:57.407Z,5.00
2023-02-19T13:55:43.223Z,6.00
2023-02-19T13:58:32.867Z,21.00
2023-02-19T14:01:02.496Z,12.25
2023-02-19T14:04:05.885Z,12.00
2023-02-19T14:07:04.366Z,5.00
2023-02-19T14:09:41.717Z,5.50
2023-02-19T14:12:15.018Z,7.25
2023-02-19T14:14:47.135Z,9.50
2023-02-19T14:17:27.069Z,7.00
2023-02-19T14:19:57.257Z,6.00
2023-02-19T14:22:46.600Z,6.25
2023-02-19T14:25:32.127Z,11.00
2023-02-19T14:28:20.943Z,10.25
2023-02-19T14:30:50.721Z,11.50
2023-02-19T14:33:23.645Z,14.50
2023-02-19T14:36:00.119Z,20.75
2023-02-19T14:38:35.802Z,15.25
2023-02-19T14:41:04.619Z,15.00
2023-02-19T14:43:34.950Z,5.75
2023-02-19T14:46:10.015Z,5.00
2023-02-19T14:48:46.474Z,5.75
2023-02-19T14:51:33.623Z,6.00
2023-02-19T14:54:11.876Z,5.00
2023-02-19T14:56:51.115Z,5.00
2023-02-19T14:59:31.309Z,4.50
2023-02-19T15:02:02.404Z,6.50
2023-02-19T15:04:37.056Z,4.75
2023-02-19T15:07:08.821Z,5.75
2023-02-19T15:09:41.411Z,7.50
2023-02-19T15:12:20.164Z,5.25
2023-02-19T15:14:53.481Z,8.25
2023-02-19T15:17:27.488Z,10.50
2023-02-19T15:20:03.612Z,12.25
2023-02-19T15:22:32.895Z,18.00
2023-02-19T15:25:03.013Z,23.00
2023-02-19T15:27:32.936Z,25.50
2023-02-19T15:30:00.647Z,18.00
2023-02-19T15:32:28.313Z,17.50
2023-02-19T15:34:57.242Z,22.75
2023-02-19T15:37:27.042Z,22.50
2023-02-19T15:39:56.073Z,21.25
2023-02-19T15:42:28.483Z,18.25
2023-02-19T15:44:58.854Z,25.00
2023-02-19T15:47:49.267Z,25.75
2023-02-19T15:50:25.426Z,24.75
2023-02-19T15:53:15.743Z,26.75
2023-02-19T15:56:04.742Z,24.75
2023-02-19T15:58:35.209Z,15.00
2023-02-19T16:01:05.190Z,17.25
2023-02-19T16:03:33.286Z,19.25
2023-02-19T16:06:17.420Z,17.00
2023-02-19T16:09:07.594Z,16.00
2023-02-19T16:11:50.185Z,14.00
2023-02-19T16:14:36.788Z,13.00
2023-02-19T16:17:10.333Z,18.25
2023-02-19T16:19:50.004Z,12.25
2023-02-19T16:22:19.971Z,23.75
2023-02-19T16:24:58.154Z,27.00
2023-02-19T16:27:37.144Z,20.50
2023-02-19T16:30:34.714Z,13.75
2023-02-19T16:33:37.490Z,10.00
2023-02-19T16:36:20.222Z,10.50
2023-02-19T16:39:07.038Z,7.25
2023-02-19T16:41:40.787Z,11.00
2023-02-19T16:44:32.572Z,5.50
2023-02-19T16:47:03.843Z,9.00
2023-02-19T16:49:31.728Z,9.00
2023-02-19T16:52:04.497Z,7.75
2023-02-19T16:54:32.271Z,10.00
2023-02-19T16:57:00.097Z,10.25
2023-02-19T16:59:28.117Z,4.50
2023-02-19T17:01:56.468Z,8.00
2023-02-19T17:04:24.485Z,7.00
2023-02-19T17:06:55.851Z,7.50
2023-02-19T17:09:23.403Z,8.75
2023-02-19T17:11:51.071Z,9.75
2023-02-19T17:14:19.652Z,8.50
2023-02-19T17:16:47.307Z,6.00
2023-02-19T17:19:19.956Z,9.00
2023-02-19T17:21:47.836Z,9.25
2023-02-19T17:24:20.851Z,10.25
2023-02-19T17:26:49.343Z,6.25
2023-02-19T17:29:18.552Z,9.25
2023-02-19T17:31:46.001Z,8.50
2023-02-19T17:34:15.923Z,11.00
2023-02-19T17:36:45.674Z,9.50
2023-02-19T17:39:18.158Z,9.75
2023-02-19T17:41:45.666Z,8.75
2023-02-19T17:44:13.142Z,7.00
2023-02-19T17:46:41.128Z,15.00
2023-02-19T17:49:12.660Z,19.25
2023-02-19T17:51:40.502Z,14.00
2023-02-19T17:54:08.474Z,13.75
2023-02-19T17:56:43.311Z,20.75
2023-02-19T17:59:11.040Z,17.50
2023-02-19T18:01:39.046Z,15.00
2023-02-19T18:04:06.602Z,13.00
2023-02-19T18:06:34.982Z,10.00
2023-02-19T18:09:02.490Z,30.25
2023-02-19T18:11:30.332Z,14.00
2023-02-19T18:14:01.762Z,10.00
2023-02-19T18:16:29.282Z,8.75
2023-02-19T18:18:58.470Z,8.75
2023-02-19T18:21:26.043Z,13.75
2023-02-19T18:23:53.526Z,15.00
2023-02-19T18:26:21.861Z,16.00
2023-02-19T18:28:50.224Z,13.25
2023-02-19T18:31:17.930Z,14.75
2023-02-19T18:33:45.563Z,17.75
2023-02-19T18:36:13.387Z,21.75
2023-02-19T18:38:41.204Z,17.75
2023-02-19T18:41:13.727Z,9.00
2023-02-19T18:43:42.199Z,9.00
2023-02-19T18:46:10.810Z,18.25
2023-02-19T18:48:39.172Z,15.50
2023-02-19T18:51:10.717Z,15.25
2023-02-19T18:53:42.595Z,15.00
2023-02-19T18:56:10.079Z,14.00
2023-02-19T18:58:41.558Z,12.00
2023-02-19T19:01:09.968Z,12.50
2023-02-19T19:03:37.651Z,10.00
2023-02-19T19:06:05.351Z,8.75
2023-02-19T19:08:32.823Z,12.00
2023-02-19T19:11:00.267Z,13.25
2023-02-19T19:13:27.691Z,14.75
2023-02-19T19:15:55.255Z,16.00
2023-02-19T19:18:22.920Z,11.75
2023-02-19T19:20:50.283Z,20.00
2023-02-19T19:23:17.804Z,14.75
2023-02-19T19:25:45.542Z,18.75
2023-02-19T19:28:12.972Z,11.50
2023-02-19T19:30:40.778Z,12.75
2023-02-19T19:33:08.425Z,11.00
2023-02-19T19:35:36.985Z,9.25
2023-02-19T19:38:04.401Z,9.50
2023-02-19T19:40:32.974Z,8.75
2023-02-19T19:43:01.356Z,8.00
2023-02-19T19:45:28.930Z,8.00
2023-02-19T19:47:56.569Z,9.00
2023-02-19T19:50:25.032Z,13.00
2023-02-19T19:52:52.444Z,13.75
2023-02-19T19:55:21.938Z,12.25
2023-02-19T19:57:49.977Z,12.75
2023-02-19T20:00:19.456Z,11.50
2023-02-19T20:02:47.196Z,13.75
2023-02-19T20:05:18.142Z,12.75
2023-02-19T20:07:46.034Z,9.00
2023-02-19T20:10:14.695Z,12.50
2023-02-19T20:12:43.423Z,12.75
2023-02-19T20:15:11.402Z,9.50
2023-02-19T20:17:40.179Z,12.25
2023-02-19T20:20:08.430Z,12.00
2023-02-19T20:22:37.820Z,10.50
2023-02-19T20:25:05.862Z,10.25
2023-02-19T20:27:33.346Z,11.00
2023-02-19T20:30:00.818Z,12.50
2023-02-19T20:32:28.296Z,31.25
2023-02-19T20:34:56.028Z,12.75
2023-02-19T20:37:23.342Z,13.50
2023-02-19T20:39:51.171Z,17.00
2023-02-19T20:42:19.238Z,14.25
2023-02-19T20:44:46.825Z,16.25
2023-02-19T20:47:14.209Z,10.50
2023-02-19T20:49:45.995Z,9.00
2023-02-19T20:52:16.333Z,12.50
2023-02-19T20:54:44.532Z,12.25
2023-02-19T20:57:13.508Z,10.00
2023-02-19T20:59:41.080Z,12.00
2023-02-19T21:02:14.941Z,14.00
2023-02-19T21:04:42.693Z,12.00
2023-02-19T21:07:12.955Z,11.00
2023-02-19T21:09:40.632Z,11.50
2023-02-19T21:12:12.122Z,12.00
2023-02-19T21:14:40.065Z,5.75
2023-02-19T21:17:07.491Z,11.25
2023-02-19T21:19:40.313Z,11.75
2023-02-19T21:22:08.104Z,12.50
2023-02-19T21:24:35.554Z,13.00
2023-02-19T21:27:03.049Z,8.75
2023-02-19T21:29:30.769Z,9.50
2023-02-19T21:31:58.888Z,12.00
2023-02-19T21:34:29.337Z,7.50
2023-02-19T21:36:57.456Z,8.25
2023-02-19T21:39:27.489Z,12.50
2023-02-19T21:41:55.016Z,8.75
2023-02-19T21:44:22.415Z,9.25
2023-02-19T21:46:51.087Z,3.50
2023-02-19T21:49:18.826Z,13.00
2023-02-19T21:51:48.686Z,10.75
2023-02-19T21:54:25.266Z,14.50
2023-02-19T21:56:53.750Z,12.50
2023-02-19T21:59:22.717Z,11.50
2023-02-19T22:01:50.827Z,10.50
2023-02-19T22:04:21.992Z,13.00
2023-02-19T22:06:49.432Z,12.25
2023-02-19T22:09:17.612Z,9.50
2023-02-19T22:11:45.601Z,12.25
2023-02-19T22:14:13.051Z,10.25
2023-02-19T22:16:41.559Z,7.25
2023-02-19T22:19:09.806Z,16.00
2023-02-19T22:21:43.214Z,11.25
2023-02-19T22:24:16.732Z,10.00
2023-02-19T22:26:46.576Z,9.25
2023-02-19T22:29:15.595Z,13.25
2023-02-19T22:31:43.709Z,7.50
2023-02-19T22:34:11.493Z,13.50
2023-02-19T22:36:39.842Z,12.00
2023-02-19T22:39:27.572Z,12.00
2023-02-19T22:41:55.012Z,15.50
2023-02-19T22:44:22.768Z,16.75
2023-02-19T22:46:55.416Z,18.75
2023-02-19T22:49:23.644Z,18.25
2023-02-19T22:51:58.672Z,18.00
2023-02-19T22:54:27.163Z,16.25
2023-02-19T22:56:55.649Z,12.25
2023-02-19T22:59:24.041Z,15.75
2023-02-19T23:01:52.447Z,16.25
2023-02-19T23:04:21.918Z,16.75
2023-02-19T23:06:50.388Z,16.50
2023-02-19T23:09:19.284Z,18.00
2023-02-19T23:11:47.549Z,15.50
2023-02-19T23:14:19.905Z,14.00
2023-02-19T23:16:47.572Z,20.50
2023-02-19T23:19:18.791Z,21.25
2023-02-19T23:21:46.486Z,21.25
2023-02-19T23:24:14.530Z,21.25
2023-02-19T23:26:50.871Z,17.50
2023-02-19T23:29:21.001Z,19.25
2023-02-19T23:31:48.699Z,18.00
2023-02-19T23:34:17.530Z,15.50
2023-02-19T23:36:47.733Z,17.25
2023-02-19T23:39:18.922Z,15.00
2023-02-19T23:41:53.563Z,20.00
2023-02-19T23:44:23.866Z,22.25
2023-02-19T23:46:52.606Z,18.00
2023-02-19T23:49:21.407Z,16.00
2023-02-19T23:51:49.018Z,9.00
2023-02-19T23:54:16.437Z,12.50
2023-02-19T23:56:44.163Z,13.75
2023-02-19T23:59:12.643Z,15.00
